Time;durP1;ratioP1;P1;durP2;ratioP2;P2;SDS_P1;SDS_P2;PMS_P1;PMS_P2;Temp;Humidity;BMP_temperature;BMP_pressure;BME280_temperature;BME280_humidity;BME280_pressure;Samples;Min_cycle;Max_cycle;Signal;HPM_P1;HPM_P2
2023/08/23 00:00:23;;;;;;;3.40;2.33;;;;;;;;;;5019999;28;20065;-61
2023/08/23 00:02:49;;;;;;;3.30;2.03;;;;;;;;;;5031125;28;20054;-60
2023/08/23 00:05:16;;;;;;;3.42;1.92;;;;;;;;;;5022489;28;20535;-59
2023/08/23 00:07:43;;;;;;;2.78;2.05;;;;;;;;;;5025188;28;20050;-60
2023/08/23 00:10:10;;;;;;;3.45;1.92;;;;;;;;;;5022640;28;20211;-59
2023/08/23 00:12:36;;;;;;;6.68;2.40;;;;;;;;;;5014750;28;20058;-59
2023/08/23 00:15:03;;;;;;;3.58;2.17;;;;;;;;;;5022035;28;20060;-59
2023/08/23 00:17:29;;;;;;;4.65;1.98;;;;;;;;;;5031001;28;20045;-57
2023/08/23 00:19:56;;;;;;;4.82;2.45;;;;;;;;;;5022654;28;20076;-59
2023/08/23 00:22:22;;;;;;;5.10;2.10;;;;;;;;;;5020435;28;20053;-60
2023/08/23 00:24:49;;;;;;;4.72;2.30;;;;;;;;;;5022623;28;20049;-57
2023/08/23 00:27:15;;;;;;;3.55;2.25;;;;;;;;;;5017645;28;20050;-59
2023/08/23 00:29:42;;;;;;;4.10;1.92;;;;;;;;;;5026064;28;20133;-58
2023/08/23 00:32:08;;;;;;;3.92;2.35;;;;;;;;;;5034502;28;20049;-60
2023/08/23 00:34:35;;;;;;;4.28;2.53;;;;;;;;;;5024294;28;20054;-57
2023/08/23 00:37:02;;;;;;;3.50;2.85;;;;;;;;;;5017829;28;20054;-60
2023/08/23 00:39:29;;;;;;;5.70;2.90;;;;;;;;;;5025417;28;20061;-60
2023/08/23 00:41:55;;;;;;;8.75;2.40;;;;;;;;;;5024506;28;20061;-59
2023/08/23 00:44:22;;;;;;;5.38;2.78;;;;;;;;;;5025268;28;20046;-60
2023/08/23 00:46:48;;;;;;;6.72;2.70;;;;;;;;;;5026830;28;20057;-59
2023/08/23 00:49:14;;;;;;;3.45;2.53;;;;;;;;;;5025859;28;20145;-55
2023/08/23 00:51:41;;;;;;;3.75;2.30;;;;;;;;;;5020201;28;20510;-58
2023/08/23 00:54:09;;;;;;;2.65;2.20;;;;;;;;;;5019330;28;20140;-60
2023/08/23 00:56:36;;;;;;;4.47;2.30;;;;;;;;;;5024910;28;20061;-58
2023/08/23 00:59:03;;;;;;;3.47;2.40;;;;;;;;;;5025331;28;20060;-58
2023/08/23 01:01:29;;;;;;;3.95;2.22;;;;;;;;;;5034238;28;20054;-57
2023/08/23 01:03:57;;;;;;;4.57;2.63;;;;;;;;;;5018678;28;20050;-60
2023/08/23 01:06:29;;;;;;;4.03;2.30;;;;;;;;;;5014117;28;20064;-60
2023/08/23 01:09:02;;;;;;;3.75;2.25;;;;;;;;;;5024480;28;20127;-57
2023/08/23 01:11:33;;;;;;;3.20;2.20;;;;;;;;;;5024075;28;20133;-57
2023/08/23 01:13:59;;;;;;;3.22;1.83;;;;;;;;;;5024704;28;20144;-59
2023/08/23 01:16:27;;;;;;;2.85;1.90;;;;;;;;;;5019292;28;20060;-58
2023/08/23 01:18:54;;;;;;;3.00;2.30;;;;;;;;;;5024410;28;20046;-59
2023/08/23 01:21:25;;;;;;;3.88;2.40;;;;;;;;;;5025626;28;20058;-59
2023/08/23 01:23:51;;;;;;;3.35;2.10;;;;;;;;;;5014257;28;20101;-59
2023/08/23 01:26:18;;;;;;;3.13;2.25;;;;;;;;;;5021933;28;20058;-60
2023/08/23 01:28:47;;;;;;;2.97;2.13;;;;;;;;;;5020450;28;20050;-59
2023/08/23 01:31:15;;;;;;;3.50;2.22;;;;;;;;;;5024135;28;20161;-59
2023/08/23 01:33:45;;;;;;;3.90;2.10;;;;;;;;;;5025602;28;20057;-56
2023/08/23 01:36:22;;;;;;;5.68;2.20;;;;;;;;;;5024299;28;20124;-60
2023/08/23 01:38:48;;;;;;;3.17;1.92;;;;;;;;;;5024757;28;20065;-57
2023/08/23 01:41:15;;;;;;;2.20;1.80;;;;;;;;;;5024634;28;20520;-59
2023/08/23 01:43:44;;;;;;;9.85;2.05;;;;;;;;;;5024296;28;20054;-59
2023/08/23 01:46:10;;;;;;;2.30;2.10;;;;;;;;;;5032239;28;20172;-59
2023/08/23 01:48:37;;;;;;;3.35;1.88;;;;;;;;;;5024371;28;20054;-58
2023/08/23 01:51:03;;;;;;;4.50;2.00;;;;;;;;;;5022709;28;20109;-59
2023/08/23 01:53:30;;;;;;;3.08;2.05;;;;;;;;;;5021105;28;20156;-59
2023/08/23 01:55:56;;;;;;;4.88;2.20;;;;;;;;;;5023949;28;20093;-59
2023/08/23 01:58:25;;;;;;;3.38;2.15;;;;;;;;;;5024898;28;20058;-59
2023/08/23 02:00:52;;;;;;;4.55;2.78;;;;;;;;;;5029480;28;20058;-60
2023/08/23 02:03:18;;;;;;;2.78;2.00;;;;;;;;;;5021770;28;20132;-58
2023/08/23 02:05:45;;;;;;;4.30;2.33;;;;;;;;;;5023975;28;20097;-59
2023/08/23 02:08:11;;;;;;;4.03;2.40;;;;;;;;;;5024407;28;20132;-59
2023/08/23 02:10:37;;;;;;;3.90;2.75;;;;;;;;;;5023824;28;20534;-60
2023/08/23 02:13:05;;;;;;;4.38;2.78;;;;;;;;;;5023414;28;20503;-60
2023/08/23 02:15:32;;;;;;;4.18;2.50;;;;;;;;;;5031357;28;20060;-59
2023/08/23 02:17:58;;;;;;;4.30;2.88;;;;;;;;;;5023878;28;20097;-59
2023/08/23 02:20:25;;;;;;;5.03;2.55;;;;;;;;;;5022941;28;20058;-59
2023/08/23 02:22:51;;;;;;;4.18;2.50;;;;;;;;;;5021747;28;20058;-59
2023/08/23 02:25:18;;;;;;;3.10;2.63;;;;;;;;;;5023369;28;20064;-56
2023/08/23 02:27:44;;;;;;;3.25;2.60;;;;;;;;;;5023617;28;20610;-57
2023/08/23 02:30:12;;;;;;;7.07;3.40;;;;;;;;;;5034423;28;20187;-60
2023/08/23 02:32:39;;;;;;;3.22;2.92;;;;;;;;;;5028314;28;20409;-58
2023/08/23 02:35:05;;;;;;;5.45;3.00;;;;;;;;;;5023093;28;20053;-59
2023/08/23 02:37:32;;;;;;;9.70;3.20;;;;;;;;;;5023897;28;20664;-60
2023/08/23 02:39:58;;;;;;;6.45;3.75;;;;;;;;;;5023300;28;20108;-59
2023/08/23 02:42:24;;;;;;;4.45;3.85;;;;;;;;;;5023176;28;20464;-59
2023/08/23 02:44:51;;;;;;;6.65;4.30;;;;;;;;;;5022336;28;20143;-59
2023/08/23 02:47:17;;;;;;;9.75;3.78;;;;;;;;;;5021918;28;20104;-59
2023/08/23 02:49:44;;;;;;;7.50;4.53;;;;;;;;;;5024009;28;20511;-59
2023/08/23 02:52:10;;;;;;;6.03;4.63;;;;;;;;;;5020576;28;20054;-60
2023/08/23 02:54:37;;;;;;;6.28;3.88;;;;;;;;;;5023370;28;20344;-58
2023/08/23 02:57:03;;;;;;;5.20;4.15;;;;;;;;;;5038013;28;20154;-59
2023/08/23 02:59:30;;;;;;;6.40;3.97;;;;;;;;;;5024357;28;20054;-57
2023/08/23 03:01:56;;;;;;;6.30;5.00;;;;;;;;;;5042852;28;20053;-58
2023/08/23 03:04:23;;;;;;;5.25;4.25;;;;;;;;;;5028533;28;20054;-59
2023/08/23 03:06:49;;;;;;;10.63;5.05;;;;;;;;;;5022495;28;20057;-59
2023/08/23 03:09:16;;;;;;;8.73;4.43;;;;;;;;;;5022551;28;20132;-60
2023/08/23 03:11:42;;;;;;;6.28;4.60;;;;;;;;;;5023655;28;20053;-58
2023/08/23 03:14:08;;;;;;;6.88;4.25;;;;;;;;;;5011920;28;20133;-59
2023/08/23 03:16:35;;;;;;;5.30;3.97;;;;;;;;;;5024149;28;20055;-57
2023/08/23 03:19:02;;;;;;;4.50;3.72;;;;;;;;;;5005825;28;20054;-57
2023/08/23 03:21:28;;;;;;;5.20;4.07;;;;;;;;;;5022950;28;20524;-59
2023/08/23 03:23:55;;;;;;;7.30;4.03;;;;;;;;;;5021964;28;20061;-59
2023/08/23 03:26:21;;;;;;;5.18;3.90;;;;;;;;;;5021950;28;20061;-59
2023/08/23 03:28:48;;;;;;;9.27;4.13;;;;;;;;;;5022753;28;20513;-59
2023/08/23 03:31:14;;;;;;;7.32;4.13;;;;;;;;;;5040117;28;20057;-59
2023/08/23 03:33:41;;;;;;;7.15;4.35;;;;;;;;;;5006490;28;20058;-57
2023/08/23 03:36:07;;;;;;;7.38;4.93;;;;;;;;;;5016406;28;20141;-59
2023/08/23 03:38:34;;;;;;;6.07;4.28;;;;;;;;;;5022667;28;20054;-61
2023/08/23 03:41:00;;;;;;;5.50;4.30;;;;;;;;;;5023116;28;20131;-59
2023/08/23 03:43:28;;;;;;;7.43;4.10;;;;;;;;;;5023213;28;20057;-59
2023/08/23 03:45:55;;;;;;;9.75;3.97;;;;;;;;;;5020350;28;20165;-60
2023/08/23 03:48:21;;;;;;;6.20;4.13;;;;;;;;;;5020979;28;20529;-58
2023/08/23 03:50:48;;;;;;;6.80;4.10;;;;;;;;;;5021659;28;20649;-60
2023/08/23 03:53:14;;;;;;;7.28;4.20;;;;;;;;;;5038292;28;20054;-57
2023/08/23 03:55:41;;;;;;;4.32;3.47;;;;;;;;;;5022478;28;20148;-58
2023/08/23 03:58:07;;;;;;;5.07;3.83;;;;;;;;;;5020499;28;20140;-59
2023/08/23 04:00:34;;;;;;;6.20;3.75;;;;;;;;;;5036260;28;20058;-60
2023/08/23 04:03:01;;;;;;;6.18;3.90;;;;;;;;;;5016688;28;20114;-59
2023/08/23 04:05:28;;;;;;;5.93;3.95;;;;;;;;;;5022922;28;20595;-59
2023/08/23 04:07:54;;;;;;;6.97;4.30;;;;;;;;;;5021301;28;20112;-59
2023/08/23 04:10:20;;;;;;;9.55;4.35;;;;;;;;;;5022264;28;20057;-60
2023/08/23 04:12:47;;;;;;;5.68;4.05;;;;;;;;;;5021077;28;20058;-60
2023/08/23 04:15:13;;;;;;;6.00;3.50;;;;;;;;;;5009062;28;20060;-60
2023/08/23 04:17:40;;;;;;;5.97;4.40;;;;;;;;;;5040023;28;20085;-61
2023/08/23 04:20:06;;;;;;;7.05;4.25;;;;;;;;;;5021576;28;20078;-61
2023/08/23 04:22:33;;;;;;;5.97;3.95;;;;;;;;;;5021896;28;20054;-60
2023/08/23 04:24:59;;;;;;;5.10;4.03;;;;;;;;;;5005366;28;20062;-61
2023/08/23 04:27:26;;;;;;;6.90;4.60;;;;;;;;;;5019144;28;20137;-60
2023/08/23 04:29:52;;;;;;;7.60;4.05;;;;;;;;;;5028394;28;20504;-61
2023/08/23 04:32:19;;;;;;;6.47;3.80;;;;;;;;;;5024624;28;20056;-61
2023/08/23 04:34:45;;;;;;;5.70;3.50;;;;;;;;;;5030791;28;20150;-60
2023/08/23 04:37:11;;;;;;;6.70;3.95;;;;;;;;;;5026529;28;20053;-61
2023/08/23 04:39:38;;;;;;;8.13;4.63;;;;;;;;;;5031258;28;20820;-61
2023/08/23 04:42:05;;;;;;;7.82;4.75;;;;;;;;;;5024137;28;20060;-60
2023/08/23 04:44:31;;;;;;;5.68;4.00;;;;;;;;;;5023656;28;20473;-60
2023/08/23 04:46:58;;;;;;;9.05;4.35;;;;;;;;;;5021223;28;20062;-60
2023/08/23 04:49:25;;;;;;;8.75;5.32;;;;;;;;;;5019251;28;20581;-60
2023/08/23 04:51:51;;;;;;;8.45;4.95;;;;;;;;;;5021499;28;20081;-58
2023/08/23 04:54:17;;;;;;;8.32;5.97;;;;;;;;;;5020567;28;20050;-60
2023/08/23 04:56:44;;;;;;;10.90;6.60;;;;;;;;;;5031389;28;20141;-58
2023/08/23 04:59:11;;;;;;;8.15;5.88;;;;;;;;;;5021938;28;20064;-60
2023/08/23 05:01:37;;;;;;;8.80;5.78;;;;;;;;;;5018833;28;20405;-60
2023/08/23 05:04:04;;;;;;;12.88;5.72;;;;;;;;;;5017929;28;20050;-58
2023/08/23 05:06:31;;;;;;;6.25;5.05;;;;;;;;;;5003295;28;20065;-59
2023/08/23 05:09:01;;;;;;;9.23;5.88;;;;;;;;;;5020451;28;20046;-60
2023/08/23 05:11:27;;;;;;;8.98;5.72;;;;;;;;;;5023289;28;20137;-60
2023/08/23 05:13:53;;;;;;;12.60;6.22;;;;;;;;;;5022976;28;20528;-60
2023/08/23 05:16:20;;;;;;;8.57;6.30;;;;;;;;;;5022114;28;20054;-60
2023/08/23 05:18:46;;;;;;;8.50;5.82;;;;;;;;;;5024738;28;20132;-59
2023/08/23 05:21:14;;;;;;;14.50;7.00;;;;;;;;;;5023071;28;20704;-60
2023/08/23 05:23:40;;;;;;;14.05;7.35;;;;;;;;;;5016877;28;20605;-60
2023/08/23 05:26:07;;;;;;;11.80;7.45;;;;;;;;;;5011281;28;20054;-60
2023/08/23 05:28:33;;;;;;;10.30;7.28;;;;;;;;;;5024971;28;20054;-59
2023/08/23 05:31:00;;;;;;;13.23;7.07;;;;;;;;;;5042096;28;20053;-59
2023/08/23 05:33:27;;;;;;;13.98;7.05;;;;;;;;;;5042118;28;20049;-60
2023/08/23 05:35:53;;;;;;;10.95;7.28;;;;;;;;;;5028460;28;20057;-60
2023/08/23 05:38:23;;;;;;;10.07;6.95;;;;;;;;;;5017954;28;20130;-60
2023/08/23 05:40:51;;;;;;;12.90;7.45;;;;;;;;;;5020213;28;20158;-60
2023/08/23 05:43:18;;;;;;;9.98;6.68;;;;;;;;;;5028476;28;20163;-61
2023/08/23 05:45:44;;;;;;;13.05;7.30;;;;;;;;;;5033555;28;20054;-60
2023/08/23 05:48:12;;;;;;;12.38;6.90;;;;;;;;;;5040571;28;20052;-59
2023/08/23 05:50:39;;;;;;;10.70;7.22;;;;;;;;;;5024051;28;20475;-60
2023/08/23 05:53:09;;;;;;;10.63;6.50;;;;;;;;;;5020611;28;20594;-60
2023/08/23 05:55:36;;;;;;;11.02;6.60;;;;;;;;;;5019284;28;20065;-60
2023/08/23 05:58:03;;;;;;;11.40;6.30;;;;;;;;;;5023417;28;20058;-60
2023/08/23 06:00:29;;;;;;;10.15;6.47;;;;;;;;;;5022738;28;20061;-61
2023/08/23 06:02:56;;;;;;;12.05;6.93;;;;;;;;;;5021261;28;20144;-62
2023/08/23 06:05:23;;;;;;;11.48;6.45;;;;;;;;;;5021841;28;20116;-62
2023/08/23 06:07:49;;;;;;;9.88;7.03;;;;;;;;;;5031991;28;20049;-59
2023/08/23 06:10:16;;;;;;;14.93;6.38;;;;;;;;;;5022647;28;20085;-60
2023/08/23 06:12:42;;;;;;;9.30;6.55;;;;;;;;;;5020446;28;20108;-61
2023/08/23 06:15:09;;;;;;;9.82;6.53;;;;;;;;;;5023021;28;20046;-59
2023/08/23 06:17:35;;;;;;;12.05;6.75;;;;;;;;;;5018107;28;20180;-57
2023/08/23 06:20:04;;;;;;;9.73;6.45;;;;;;;;;;5017419;28;20050;-60
2023/08/23 06:22:30;;;;;;;10.60;7.22;;;;;;;;;;5018644;28;20074;-59
2023/08/23 06:24:57;;;;;;;10.93;6.85;;;;;;;;;;5019079;28;20427;-63
2023/08/23 06:27:24;;;;;;;9.20;5.63;;;;;;;;;;5021502;28;20597;-61
2023/08/23 06:29:50;;;;;;;8.98;6.07;;;;;;;;;;5010114;28;20061;-59
2023/08/23 06:32:16;;;;;;;8.10;5.88;;;;;;;;;;5033322;28;20054;-62
2023/08/23 06:34:43;;;;;;;9.52;5.85;;;;;;;;;;5022789;28;20136;-61
2023/08/23 06:37:11;;;;;;;9.50;5.18;;;;;;;;;;5022071;28;20065;-61
2023/08/23 06:39:37;;;;;;;9.40;6.05;;;;;;;;;;5022607;28;20060;-62
2023/08/23 06:42:03;;;;;;;7.70;4.90;;;;;;;;;;5015521;28;20117;-62
2023/08/23 06:44:30;;;;;;;10.85;5.80;;;;;;;;;;5022690;28;20527;-60
2023/08/23 06:46:57;;;;;;;10.05;5.15;;;;;;;;;;5015409;28;20059;-61
2023/08/23 06:49:23;;;;;;;7.45;4.53;;;;;;;;;;5014498;28;20070;-60
2023/08/23 06:51:50;;;;;;;10.00;4.20;;;;;;;;;;5021119;28;20473;-61
2023/08/23 06:54:16;;;;;;;8.30;4.75;;;;;;;;;;5023030;28;20097;-62
2023/08/23 06:56:43;;;;;;;6.57;4.28;;;;;;;;;;5023201;28;20084;-61
2023/08/23 06:59:09;;;;;;;6.05;4.18;;;;;;;;;;5025166;28;20141;-60
2023/08/23 07:01:36;;;;;;;7.15;4.13;;;;;;;;;;5016119;28;20538;-60
2023/08/23 07:04:02;;;;;;;6.95;3.47;;;;;;;;;;5033986;28;20064;-61
2023/08/23 07:06:29;;;;;;;9.38;3.92;;;;;;;;;;5015352;28;20113;-59
2023/08/23 07:08:56;;;;;;;11.90;3.95;;;;;;;;;;5018306;28;20054;-60
2023/08/23 07:11:22;;;;;;;7.90;3.50;;;;;;;;;;5016746;28;20064;-59
2023/08/23 07:13:48;;;;;;;6.18;2.97;;;;;;;;;;5015919;28;20482;-60
2023/08/23 07:16:15;;;;;;;5.40;2.90;;;;;;;;;;5015183;28;20831;-61
2023/08/23 07:18:41;;;;;;;7.40;3.22;;;;;;;;;;5016649;28;20053;-59
2023/08/23 07:21:09;;;;;;;4.93;3.17;;;;;;;;;;5020619;28;20054;-61
2023/08/23 07:23:36;;;;;;;6.38;2.22;;;;;;;;;;5011880;28;20061;-61
2023/08/23 07:26:03;;;;;;;5.10;2.80;;;;;;;;;;5019140;28;20524;-60
2023/08/23 07:28:29;;;;;;;4.20;2.47;;;;;;;;;;5019572;28;20058;-58
2023/08/23 07:30:59;;;;;;;6.50;2.78;;;;;;;;;;5018909;28;20685;-61
2023/08/23 07:33:26;;;;;;;7.45;3.20;;;;;;;;;;5014536;28;20054;-62
2023/08/23 07:35:54;;;;;;;3.10;2.22;;;;;;;;;;5023506;28;20050;-62
2023/08/23 07:38:20;;;;;;;10.85;2.97;;;;;;;;;;5020623;28;20495;-61
2023/08/23 07:40:46;;;;;;;7.90;3.35;;;;;;;;;;5020784;28;20053;-60
2023/08/23 07:43:13;;;;;;;4.15;2.20;;;;;;;;;;5020274;28;20053;-60
2023/08/23 07:45:39;;;;;;;4.28;2.50;;;;;;;;;;5008927;28;20494;-61
2023/08/23 07:48:06;;;;;;;6.07;2.53;;;;;;;;;;5011563;28;20054;-59
2023/08/23 07:50:32;;;;;;;7.47;2.38;;;;;;;;;;5022261;28;20054;-61
2023/08/23 07:52:59;;;;;;;11.30;3.03;;;;;;;;;;5019204;28;20058;-59
2023/08/23 07:55:25;;;;;;;4.57;2.60;;;;;;;;;;5034743;28;20112;-61
2023/08/23 07:57:52;;;;;;;3.83;2.30;;;;;;;;;;5019889;28;20062;-60
2023/08/23 08:00:18;;;;;;;4.47;2.47;;;;;;;;;;5019933;28;20141;-60
2023/08/23 08:02:45;;;;;;;3.35;2.45;;;;;;;;;;5015516;28;20196;-61
2023/08/23 08:05:12;;;;;;;6.55;2.47;;;;;;;;;;5020354;28;20658;-60
2023/08/23 08:07:38;;;;;;;4.03;3.20;;;;;;;;;;5022422;28;20796;-59
2023/08/23 08:10:08;;;;;;;6.13;3.75;;;;;;;;;;5018542;28;20065;-60
2023/08/23 08:12:34;;;;;;;10.30;2.72;;;;;;;;;;5015547;28;20508;-61
2023/08/23 08:15:05;;;;;;;4.82;2.75;;;;;;;;;;5018550;28;20097;-60
2023/08/23 08:17:33;;;;;;;5.82;2.40;;;;;;;;;;5013054;28;20143;-60
2023/08/23 08:20:00;;;;;;;2.90;1.95;;;;;;;;;;5014011;28;20097;-41
2023/08/23 08:22:26;;;;;;;4.72;1.88;;;;;;;;;;5020002;28;20551;-51
2023/08/23 08:24:53;;;;;;;2.40;2.03;;;;;;;;;;5025581;28;20536;-49
2023/08/23 08:27:19;;;;;;;3.05;2.00;;;;;;;;;;5016650;28;20069;-45
2023/08/23 08:29:46;;;;;;;6.90;2.00;;;;;;;;;;5024418;28;20062;-46
2023/08/23 08:32:13;;;;;;;4.72;2.58;;;;;;;;;;5013623;28;20078;-47
2023/08/23 08:34:39;;;;;;;6.10;1.95;;;;;;;;;;5028712;28;20093;-47
2023/08/23 08:37:06;;;;;;;3.60;1.90;;;;;;;;;;5031210;28;20070;-46
2023/08/23 08:39:32;;;;;;;5.05;2.08;;;;;;;;;;5024519;28;20050;-42
2023/08/23 08:41:59;;;;;;;3.78;1.98;;;;;;;;;;5021340;28;20555;-42
2023/08/23 08:44:26;;;;;;;5.55;2.17;;;;;;;;;;5021313;28;20510;-43
2023/08/23 08:46:52;;;;;;;3.35;1.75;;;;;;;;;;5021911;28;20089;-49
2023/08/23 08:49:19;;;;;;;3.00;2.13;;;;;;;;;;5031596;28;20054;-58
2023/08/23 08:51:46;;;;;;;3.75;2.70;;;;;;;;;;5024681;28;20120;-63
2023/08/23 08:54:17;;;;;;;6.38;2.75;;;;;;;;;;5025433;28;20622;-64
2023/08/23 08:56:46;;;;;;;4.22;2.75;;;;;;;;;;5032988;28;20119;-61
2023/08/23 08:59:14;;;;;;;5.30;2.03;;;;;;;;;;5025013;28;20299;-63
2023/08/23 09:01:42;;;;;;;2.85;1.88;;;;;;;;;;5039197;28;20504;-60
2023/08/23 09:04:08;;;;;;;4.40;2.10;;;;;;;;;;5028265;28;20054;-63
2023/08/23 09:06:40;;;;;;;5.82;2.25;;;;;;;;;;5017890;28;20592;-61
2023/08/23 09:09:07;;;;;;;3.67;2.35;;;;;;;;;;5018979;28;20054;-62
2023/08/23 09:11:33;;;;;;;6.25;2.10;;;;;;;;;;5024773;28;20153;-63
2023/08/23 09:14:18;;;;;;;3.70;2.15;;;;;;;;;;5025022;28;20078;-64
2023/08/23 09:16:46;;;;;;;4.03;2.30;;;;;;;;;;5023158;28;20061;-63
2023/08/23 09:19:16;;;;;;;4.25;2.13;;;;;;;;;;5022389;28;20508;-63
2023/08/23 09:21:43;;;;;;;4.35;2.35;;;;;;;;;;5028417;28;20169;-63
2023/08/23 09:24:10;;;;;;;9.48;2.88;;;;;;;;;;5023536;28;20064;-62
2023/08/23 09:26:38;;;;;;;5.25;2.50;;;;;;;;;;5024365;28;20068;-62
2023/08/23 09:29:05;;;;;;;7.35;2.60;;;;;;;;;;5026932;28;20509;-62
2023/08/23 09:31:31;;;;;;;4.00;2.25;;;;;;;;;;5013736;28;20813;-62
2023/08/23 09:34:00;;;;;;;3.90;2.30;;;;;;;;;;5038919;28;20484;-63
2023/08/23 09:36:30;;;;;;;4.00;2.65;;;;;;;;;;5024801;28;20054;-62
2023/08/23 09:38:59;;;;;;;4.55;2.28;;;;;;;;;;5019224;28;20053;-63
2023/08/23 09:41:25;;;;;;;4.03;2.10;;;;;;;;;;5020036;28;20594;-61
2023/08/23 09:43:54;;;;;;;5.05;2.70;;;;;;;;;;5027803;28;20061;-62
2023/08/23 09:46:27;;;;;;;5.50;2.50;;;;;;;;;;5024817;28;20053;-62
2023/08/23 09:48:54;;;;;;;7.65;2.35;;;;;;;;;;5024055;28;20159;-62
2023/08/23 09:51:22;;;;;;;7.18;3.00;;;;;;;;;;5024866;28;20117;-61
2023/08/23 09:53:51;;;;;;;5.15;2.45;;;;;;;;;;5022311;28;20054;-62
2023/08/23 09:56:18;;;;;;;5.13;2.83;;;;;;;;;;5029577;28;20626;-63
2023/08/23 09:58:45;;;;;;;7.40;2.70;;;;;;;;;;5017785;28;20127;-62
2023/08/23 10:01:12;;;;;;;4.45;2.28;;;;;;;;;;5036083;28;20058;-63
2023/08/23 10:03:39;;;;;;;5.57;2.30;;;;;;;;;;5022570;28;20060;-63
2023/08/23 10:06:07;;;;;;;4.75;2.30;;;;;;;;;;5022238;28;20054;-61
2023/08/23 10:08:35;;;;;;;3.55;2.42;;;;;;;;;;5021266;28;20054;-61
2023/08/23 10:11:02;;;;;;;6.07;2.55;;;;;;;;;;5030186;28;20054;-62
2023/08/23 10:13:30;;;;;;;5.05;2.42;;;;;;;;;;5035952;28;20525;-61
2023/08/23 10:15:57;;;;;;;5.18;3.05;;;;;;;;;;5031979;28;20142;-62
2023/08/23 10:18:24;;;;;;;4.25;2.08;;;;;;;;;;5025225;28;20097;-61
2023/08/23 10:20:51;;;;;;;2.47;1.90;;;;;;;;;;5029917;28;20057;-62
2023/08/23 10:23:18;;;;;;;4.60;2.00;;;;;;;;;;5030426;28;20085;-62
2023/08/23 10:25:46;;;;;;;5.15;2.70;;;;;;;;;;5030070;28;20503;-61
2023/08/23 10:28:14;;;;;;;7.75;1.90;;;;;;;;;;5022405;28;20437;-62
2023/08/23 10:30:49;;;;;;;3.25;1.90;;;;;;;;;;5037180;28;20171;-61
2023/08/23 10:33:16;;;;;;;2.55;1.73;;;;;;;;;;5023513;28;20537;-62
2023/08/23 10:35:44;;;;;;;5.20;1.92;;;;;;;;;;5024944;28;20157;-62
2023/08/23 10:38:11;;;;;;;3.75;1.85;;;;;;;;;;5025847;28;20058;-61
2023/08/23 10:40:38;;;;;;;3.88;1.80;;;;;;;;;;5021723;28;20471;-63
2023/08/23 10:43:14;;;;;;;3.63;1.80;;;;;;;;;;5023833;28;20522;-63
2023/08/23 10:45:47;;;;;;;3.33;1.70;;;;;;;;;;5028789;28;20065;-62
2023/08/23 10:48:14;;;;;;;4.93;2.00;;;;;;;;;;5022915;28;20057;-62
2023/08/23 10:50:41;;;;;;;2.70;1.63;;;;;;;;;;5026040;28;20054;-62
2023/08/23 10:53:09;;;;;;;2.70;2.15;;;;;;;;;;5033252;28;20060;-63
2023/08/23 10:55:36;;;;;;;2.72;2.10;;;;;;;;;;5017242;28;20061;-62
2023/08/23 10:58:03;;;;;;;4.88;1.83;;;;;;;;;;5026013;28;20132;-63
2023/08/23 11:00:29;;;;;;;3.45;2.03;;;;;;;;;;5017248;28;20085;-63
2023/08/23 11:02:56;;;;;;;4.47;2.28;;;;;;;;;;5032683;28;20683;-62
2023/08/23 11:05:22;;;;;;;4.95;2.33;;;;;;;;;;5025369;28;20049;-62
2023/08/23 11:07:49;;;;;;;7.97;2.50;;;;;;;;;;5029466;28;20085;-62
2023/08/23 11:10:16;;;;;;;5.68;2.35;;;;;;;;;;5022342;28;20053;-63
2023/08/23 11:12:42;;;;;;;6.65;2.10;;;;;;;;;;5022034;28;20540;-63
2023/08/23 11:15:09;;;;;;;6.18;2.63;;;;;;;;;;5022309;28;20536;-62
2023/08/23 11:17:37;;;;;;;7.07;2.90;;;;;;;;;;5025827;28;20062;-62
2023/08/23 11:20:05;;;;;;;5.05;1.90;;;;;;;;;;5020851;28;20497;-62
2023/08/23 11:22:32;;;;;;;4.05;2.30;;;;;;;;;;5033773;28;20108;-63
2023/08/23 11:24:59;;;;;;;4.55;2.38;;;;;;;;;;5033163;28;20058;-62
2023/08/23 11:27:26;;;;;;;4.78;2.88;;;;;;;;;;5023718;28;20723;-62
2023/08/23 11:29:52;;;;;;;5.22;2.03;;;;;;;;;;5020031;28;20096;-63
2023/08/23 11:32:19;;;;;;;5.63;2.33;;;;;;;;;;5021107;28;20069;-63
2023/08/23 11:34:46;;;;;;;4.45;2.30;;;;;;;;;;5021594;28;20057;-62
2023/08/23 11:37:12;;;;;;;5.45;2.38;;;;;;;;;;5028781;28;20055;-62
2023/08/23 11:39:39;;;;;;;5.90;2.65;;;;;;;;;;5030193;28;20049;-63
2023/08/23 11:42:06;;;;;;;6.32;3.15;;;;;;;;;;5007577;28;20065;-64
2023/08/23 11:44:32;;;;;;;5.20;2.83;;;;;;;;;;5021202;28;20053;-62
2023/08/23 11:46:59;;;;;;;6.55;2.95;;;;;;;;;;5020558;28;20525;-60
2023/08/23 11:49:26;;;;;;;5.07;3.20;;;;;;;;;;5022498;28;20049;-61
2023/08/23 11:51:53;;;;;;;5.70;2.72;;;;;;;;;;5019461;28;20077;-62
2023/08/23 11:54:22;;;;;;;5.40;2.60;;;;;;;;;;5024407;28;20645;-62
2023/08/23 11:56:48;;;;;;;6.50;3.58;;;;;;;;;;5020771;28;20167;-61
2023/08/23 11:59:15;;;;;;;6.28;2.60;;;;;;;;;;5020786;28;20567;-60
2023/08/23 12:01:44;;;;;;;5.53;2.35;;;;;;;;;;5020901;28;20056;-62
2023/08/23 12:04:11;;;;;;;2.70;2.08;;;;;;;;;;5021737;28;20049;-62
2023/08/23 12:06:39;;;;;;;6.32;2.28;;;;;;;;;;5019659;28;20049;-63
2023/08/23 12:09:09;;;;;;;4.55;2.42;;;;;;;;;;5021092;28;20591;-63
2023/08/23 12:11:35;;;;;;;2.13;1.90;;;;;;;;;;5010696;28;20057;-62
2023/08/23 12:14:04;;;;;;;7.07;2.20;;;;;;;;;;5019153;28;20620;-64
2023/08/23 12:16:33;;;;;;;3.67;2.20;;;;;;;;;;5013248;28;20058;-62
2023/08/23 12:19:00;;;;;;;8.60;2.63;;;;;;;;;;5020781;28;20537;-64
2023/08/23 12:21:26;;;;;;;3.47;2.08;;;;;;;;;;5022194;28;20513;-63
2023/08/23 12:23:53;;;;;;;5.63;2.15;;;;;;;;;;5025661;28;20068;-62
2023/08/23 12:26:26;;;;;;;5.40;2.47;;;;;;;;;;5022244;28;20407;-61
2023/08/23 12:28:52;;;;;;;5.20;2.15;;;;;;;;;;5011103;28;20054;-62
2023/08/23 12:31:19;;;;;;;5.45;2.33;;;;;;;;;;5025145;28;20134;-62
2023/08/23 12:33:46;;;;;;;5.40;2.15;;;;;;;;;;5008199;28;20081;-62
2023/08/23 12:36:13;;;;;;;3.50;2.03;;;;;;;;;;5018326;28;20577;-62
2023/08/23 12:38:39;;;;;;;4.18;1.92;;;;;;;;;;5034432;28;20133;-62
2023/08/23 12:41:06;;;;;;;5.18;1.83;;;;;;;;;;5024037;28;20058;-61
2023/08/23 12:43:33;;;;;;;4.80;2.03;;;;;;;;;;5036528;28;20065;-62
2023/08/23 12:46:00;;;;;;;5.93;2.00;;;;;;;;;;5028867;28;20564;-62
2023/08/23 12:48:27;;;;;;;3.35;2.13;;;;;;;;;;5023805;28;20106;-61
2023/08/23 12:50:54;;;;;;;3.03;1.70;;;;;;;;;;5024592;28;20614;-62
2023/08/23 12:53:21;;;;;;;3.83;1.80;;;;;;;;;;5025296;28;20156;-62
2023/08/23 12:55:51;;;;;;;4.60;1.77;;;;;;;;;;5018724;28;20054;-63
2023/08/23 12:58:17;;;;;;;3.00;1.60;;;;;;;;;;5038278;28;20113;-61
2023/08/23 13:00:44;;;;;;;4.45;1.88;;;;;;;;;;5023994;28;20054;-61
2023/08/23 13:03:10;;;;;;;4.65;1.70;;;;;;;;;;5023771;28;20145;-61
2023/08/23 13:05:37;;;;;;;7.15;2.45;;;;;;;;;;5025320;28;20050;-61
2023/08/23 13:08:03;;;;;;;5.32;2.13;;;;;;;;;;5009993;28;20057;-60
2023/08/23 13:10:30;;;;;;;4.22;1.58;;;;;;;;;;5023247;28;20123;-61
2023/08/23 13:12:57;;;;;;;3.38;1.80;;;;;;;;;;5027117;28;20550;-61
2023/08/23 13:15:24;;;;;;;7.15;2.00;;;;;;;;;;5023673;28;20054;-58
2023/08/23 13:17:53;;;;;;;3.22;1.70;;;;;;;;;;5024269;28;20528;-61
2023/08/23 13:20:19;;;;;;;7.28;2.13;;;;;;;;;;5020187;28;20517;-61
2023/08/23 13:22:47;;;;;;;3.42;1.85;;;;;;;;;;5021541;28;20058;-59
2023/08/23 13:25:14;;;;;;;3.78;1.83;;;;;;;;;;5022308;28;20054;-61
2023/08/23 13:27:40;;;;;;;4.43;2.17;;;;;;;;;;5034236;28;20144;-60
2023/08/23 13:30:08;;;;;;;5.38;2.47;;;;;;;;;;5026340;28;20057;-60
2023/08/23 13:32:35;;;;;;;6.28;2.95;;;;;;;;;;5024255;28;20053;-60
2023/08/23 13:35:01;;;;;;;5.63;2.60;;;;;;;;;;5024209;28;20537;-61
2023/08/23 13:37:28;;;;;;;3.40;2.20;;;;;;;;;;5013776;28;20054;-61
2023/08/23 13:39:54;;;;;;;4.20;2.03;;;;;;;;;;5018326;28;20169;-60
2023/08/23 13:42:20;;;;;;;3.92;2.55;;;;;;;;;;5022689;28;20161;-61
2023/08/23 13:44:47;;;;;;;6.20;3.10;;;;;;;;;;5022770;28;20081;-59
2023/08/23 13:47:14;;;;;;;5.15;3.20;;;;;;;;;;5022077;28;20053;-62
2023/08/23 13:49:40;;;;;;;4.25;3.40;;;;;;;;;;5023600;28;20555;-61
2023/08/23 13:52:07;;;;;;;6.47;2.90;;;;;;;;;;5033372;28;20566;-61
2023/08/23 13:54:33;;;;;;;4.43;2.58;;;;;;;;;;5021871;28;20058;-60
2023/08/23 13:57:00;;;;;;;5.70;2.97;;;;;;;;;;5023903;28;20104;-61
2023/08/23 13:59:26;;;;;;;2.90;2.33;;;;;;;;;;5023200;28;20058;-62
2023/08/23 14:01:53;;;;;;;4.80;3.13;;;;;;;;;;5021147;28;20428;-61
2023/08/23 14:04:21;;;;;;;5.85;2.95;;;;;;;;;;5028282;28;20128;-61
2023/08/23 14:06:47;;;;;;;3.83;2.75;;;;;;;;;;5023072;28;20591;-61
2023/08/23 14:09:13;;;;;;;5.45;3.10;;;;;;;;;;5019770;28;20081;-61
2023/08/23 14:11:40;;;;;;;7.97;3.00;;;;;;;;;;5024518;28;20054;-60
2023/08/23 14:14:06;;;;;;;6.80;3.10;;;;;;;;;;5022812;28;20080;-61
2023/08/23 14:16:33;;;;;;;4.28;3.17;;;;;;;;;;5034286;28;20725;-60
2023/08/23 14:19:00;;;;;;;5.53;2.58;;;;;;;;;;5014156;28;20112;-61
2023/08/23 14:21:26;;;;;;;5.90;3.13;;;;;;;;;;5022940;28;20108;-61
2023/08/23 14:23:52;;;;;;;9.45;2.70;;;;;;;;;;5022336;28;20456;-61
2023/08/23 14:26:19;;;;;;;5.90;2.35;;;;;;;;;;5021905;28;20389;-60
2023/08/23 14:28:45;;;;;;;3.63;2.50;;;;;;;;;;5023677;28;20049;-61
2023/08/23 14:31:12;;;;;;;4.57;2.42;;;;;;;;;;5022213;28;20054;-61
2023/08/23 14:33:38;;;;;;;2.78;1.65;;;;;;;;;;5024008;28;20441;-61
2023/08/23 14:36:08;;;;;;;5.40;2.10;;;;;;;;;;5020198;28;20053;-61
2023/08/23 14:38:34;;;;;;;16.20;2.40;;;;;;;;;;5017983;28;20448;-59